sensor_id;sensor_type;location;lat;lon;timestamp;temperature;humidity
67163;DHT22;54092;53.088;8.850;2023-06-26T00:01:57;22.80;99.90
67163;DHT22;54092;53.088;8.850;2023-06-26T00:04:23;22.70;99.90
67163;DHT22;54092;53.088;8.850;2023-06-26T00:06:48;22.70;99.90
67163;DHT22;54092;53.088;8.850;2023-06-26T00:09:14;22.80;99.90
67163;DHT22;54092;53.088;8.850;2023-06-26T00:11:39;22.70;99.90
67163;DHT22;54092;53.088;8.850;2023-06-26T00:14:05;22.70;99.90
67163;DHT22;54092;53.088;8.850;2023-06-26T00:16:31;22.60;99.90
67163;DHT22;54092;53.088;8.850;2023-06-26T00:18:57;22.60;99.90
67163;DHT22;54092;53.088;8.850;2023-06-26T00:21:24;22.50;99.90
67163;DHT22;54092;53.088;8.850;2023-06-26T00:23:50;22.40;99.90
67163;DHT22;54092;53.088;8.850;2023-06-26T00:26:15;22.40;99.90
67163;DHT22;54092;53.088;8.850;2023-06-26T00:28:41;22.30;99.90
67163;DHT22;54092;53.088;8.850;2023-06-26T00:31:06;22.30;99.90
67163;DHT22;54092;53.088;8.850;2023-06-26T00:33:32;22.30;99.90
67163;DHT22;54092;53.088;8.850;2023-06-26T00:35:57;22.20;99.90
67163;DHT22;54092;53.088;8.850;2023-06-26T00:38:23;22.20;99.90
67163;DHT22;54092;53.088;8.850;2023-06-26T00:40:48;22.10;99.90
67163;DHT22;54092;53.088;8.850;2023-06-26T00:43:14;22.10;99.90
67163;DHT22;54092;53.088;8.850;2023-06-26T00:45:40;22.10;99.90
67163;DHT22;54092;53.088;8.850;2023-06-26T00:48:05;22.10;99.90
67163;DHT22;54092;53.088;8.850;2023-06-26T00:50:31;22.00;99.90
67163;DHT22;54092;53.088;8.850;2023-06-26T00:52:57;22.00;99.90
67163;DHT22;54092;53.088;8.850;2023-06-26T00:55:26;22.00;99.90
67163;DHT22;54092;53.088;8.850;2023-06-26T00:57:52;21.90;99.90
67163;DHT22;54092;53.088;8.850;2023-06-26T01:00:18;21.90;99.90
67163;DHT22;54092;53.088;8.850;2023-06-26T01:02:43;21.90;99.90
67163;DHT22;54092;53.088;8.850;2023-06-26T01:05:09;21.90;99.90
67163;DHT22;54092;53.088;8.850;2023-06-26T01:07:38;21.80;99.90
67163;DHT22;54092;53.088;8.850;2023-06-26T01:10:05;21.80;99.90
67163;DHT22;54092;53.088;8.850;2023-06-26T01:12:32;21.80;99.90
67163;DHT22;54092;53.088;8.850;2023-06-26T01:15:01;21.70;99.90
67163;DHT22;54092;53.088;8.850;2023-06-26T01:17:27;21.70;99.90
67163;DHT22;54092;53.088;8.850;2023-06-26T01:19:57;21.70;99.90
67163;DHT22;54092;53.088;8.850;2023-06-26T01:25:23;21.70;99.90
67163;DHT22;54092;53.088;8.850;2023-06-26T01:27:55;21.60;99.90
67163;DHT22;54092;53.088;8.850;2023-06-26T01:30:22;21.60;99.90
67163;DHT22;54092;53.088;8.850;2023-06-26T01:32:48;21.60;99.90
67163;DHT22;54092;53.088;8.850;2023-06-26T01:35:15;21.60;99.90
67163;DHT22;54092;53.088;8.850;2023-06-26T01:37:41;21.60;99.90
67163;DHT22;54092;53.088;8.850;2023-06-26T01:40:07;21.50;99.90
67163;DHT22;54092;53.088;8.850;2023-06-26T01:42:33;21.50;99.90
67163;DHT22;54092;53.088;8.850;2023-06-26T01:45:21;21.50;99.90
67163;DHT22;54092;53.088;8.850;2023-06-26T01:47:50;21.40;99.90
67163;DHT22;54092;53.088;8.850;2023-06-26T01:50:20;21.40;99.90
67163;DHT22;54092;53.088;8.850;2023-06-26T01:53:04;21.40;99.90
67163;DHT22;54092;53.088;8.850;2023-06-26T01:55:46;21.40;99.90
67163;DHT22;54092;53.088;8.850;2023-06-26T01:58:13;21.40;99.90
67163;DHT22;54092;53.088;8.850;2023-06-26T02:00:40;21.40;99.90
67163;DHT22;54092;53.088;8.850;2023-06-26T02:03:06;21.40;99.90
67163;DHT22;54092;53.088;8.850;2023-06-26T02:05:32;21.40;99.90
67163;DHT22;54092;53.088;8.850;2023-06-26T02:07:58;21.40;99.90
67163;DHT22;54092;53.088;8.850;2023-06-26T02:10:23;21.30;99.90
67163;DHT22;54092;53.088;8.850;2023-06-26T02:12:49;21.30;99.90
67163;DHT22;54092;53.088;8.850;2023-06-26T02:15:14;21.20;99.90
67163;DHT22;54092;53.088;8.850;2023-06-26T02:17:40;21.20;99.90
67163;DHT22;54092;53.088;8.850;2023-06-26T02:20:06;21.20;99.90
67163;DHT22;54092;53.088;8.850;2023-06-26T02:22:33;21.20;99.90
67163;DHT22;54092;53.088;8.850;2023-06-26T02:24:58;21.10;99.90
67163;DHT22;54092;53.088;8.850;2023-06-26T02:27:24;21.10;99.90
67163;DHT22;54092;53.088;8.850;2023-06-26T02:29:49;21.10;99.90
67163;DHT22;54092;53.088;8.850;2023-06-26T02:32:15;21.00;99.90
67163;DHT22;54092;53.088;8.850;2023-06-26T02:34:40;21.00;99.90
67163;DHT22;54092;53.088;8.850;2023-06-26T02:37:06;21.00;99.90
67163;DHT22;54092;53.088;8.850;2023-06-26T02:39:33;21.00;99.90
67163;DHT22;54092;53.088;8.850;2023-06-26T02:41:58;21.00;99.90
67163;DHT22;54092;53.088;8.850;2023-06-26T02:44:24;21.00;99.90
67163;DHT22;54092;53.088;8.850;2023-06-26T02:46:50;20.90;99.90
67163;DHT22;54092;53.088;8.850;2023-06-26T02:49:15;20.90;99.90
67163;DHT22;54092;53.088;8.850;2023-06-26T02:51:41;20.90;99.90
67163;DHT22;54092;53.088;8.850;2023-06-26T02:54:06;20.90;99.90
67163;DHT22;54092;53.088;8.850;2023-06-26T02:56:32;20.90;99.90
67163;DHT22;54092;53.088;8.850;2023-06-26T02:58:58;20.90;99.90
67163;DHT22;54092;53.088;8.850;2023-06-26T03:01:23;20.90;99.90
67163;DHT22;54092;53.088;8.850;2023-06-26T03:03:49;20.90;99.90
67163;DHT22;54092;53.088;8.850;2023-06-26T03:06:15;20.90;99.90
67163;DHT22;54092;53.088;8.850;2023-06-26T03:08:40;20.90;99.90
67163;DHT22;54092;53.088;8.850;2023-06-26T03:11:07;20.90;99.90
67163;DHT22;54092;53.088;8.850;2023-06-26T03:13:34;20.90;99.90
67163;DHT22;54092;53.088;8.850;2023-06-26T03:15:59;20.90;99.90
67163;DHT22;54092;53.088;8.850;2023-06-26T03:18:25;20.90;99.90
67163;DHT22;54092;53.088;8.850;2023-06-26T03:20:51;20.90;99.90
67163;DHT22;54092;53.088;8.850;2023-06-26T03:23:19;20.80;99.90
67163;DHT22;54092;53.088;8.850;2023-06-26T03:25:45;20.90;99.90
67163;DHT22;54092;53.088;8.850;2023-06-26T03:28:11;20.80;99.90
67163;DHT22;54092;53.088;8.850;2023-06-26T03:30:36;20.80;99.90
67163;DHT22;54092;53.088;8.850;2023-06-26T03:33:02;20.80;99.90
67163;DHT22;54092;53.088;8.850;2023-06-26T03:35:27;20.80;99.90
67163;DHT22;54092;53.088;8.850;2023-06-26T03:37:53;20.90;99.90
67163;DHT22;54092;53.088;8.850;2023-06-26T03:40:18;20.90;99.90
67163;DHT22;54092;53.088;8.850;2023-06-26T03:42:44;20.90;99.90
67163;DHT22;54092;53.088;8.850;2023-06-26T03:45:09;20.90;99.90
67163;DHT22;54092;53.088;8.850;2023-06-26T03:47:35;20.80;99.90
67163;DHT22;54092;53.088;8.850;2023-06-26T03:50:00;20.90;99.90
67163;DHT22;54092;53.088;8.850;2023-06-26T03:52:26;20.90;99.90
67163;DHT22;54092;53.088;8.850;2023-06-26T03:54:51;20.90;99.90
67163;DHT22;54092;53.088;8.850;2023-06-26T03:57:17;20.90;99.90
67163;DHT22;54092;53.088;8.850;2023-06-26T03:59:42;20.90;99.90
67163;DHT22;54092;53.088;8.850;2023-06-26T04:02:07;21.00;99.90
67163;DHT22;54092;53.088;8.850;2023-06-26T04:04:33;21.00;99.90
67163;DHT22;54092;53.088;8.850;2023-06-26T04:06:58;21.00;99.90
67163;DHT22;54092;53.088;8.850;2023-06-26T04:09:25;21.00;99.90
67163;DHT22;54092;53.088;8.850;2023-06-26T04:11:50;21.10;99.90
67163;DHT22;54092;53.088;8.850;2023-06-26T04:14:16;21.10;99.90
67163;DHT22;54092;53.088;8.850;2023-06-26T04:16:42;21.20;99.90
67163;DHT22;54092;53.088;8.850;2023-06-26T04:19:07;21.20;99.90
67163;DHT22;54092;53.088;8.850;2023-06-26T04:21:35;21.30;99.90
67163;DHT22;54092;53.088;8.850;2023-06-26T04:24:01;21.40;99.90
67163;DHT22;54092;53.088;8.850;2023-06-26T04:26:26;21.40;99.90
67163;DHT22;54092;53.088;8.850;2023-06-26T04:28:53;21.40;99.90
67163;DHT22;54092;53.088;8.850;2023-06-26T04:31:19;21.40;99.90
67163;DHT22;54092;53.088;8.850;2023-06-26T04:33:44;21.50;99.90
67163;DHT22;54092;53.088;8.850;2023-06-26T04:36:10;21.50;99.90
67163;DHT22;54092;53.088;8.850;2023-06-26T04:38:36;21.60;99.90
67163;DHT22;54092;53.088;8.850;2023-06-26T04:41:02;21.70;99.90
67163;DHT22;54092;53.088;8.850;2023-06-26T04:43:27;21.70;99.90
67163;DHT22;54092;53.088;8.850;2023-06-26T04:45:53;21.70;99.90
67163;DHT22;54092;53.088;8.850;2023-06-26T04:48:19;21.70;99.90
67163;DHT22;54092;53.088;8.850;2023-06-26T04:50:44;21.80;99.90
67163;DHT22;54092;53.088;8.850;2023-06-26T04:53:22;21.90;99.90
67163;DHT22;54092;53.088;8.850;2023-06-26T04:55:51;21.90;99.90
67163;DHT22;54092;53.088;8.850;2023-06-26T04:58:17;21.90;99.90
67163;DHT22;54092;53.088;8.850;2023-06-26T05:00:42;22.00;99.90
67163;DHT22;54092;53.088;8.850;2023-06-26T05:03:12;21.80;99.90
67163;DHT22;54092;53.088;8.850;2023-06-26T05:05:38;21.80;99.90
67163;DHT22;54092;53.088;8.850;2023-06-26T05:10:40;21.80;99.90
67163;DHT22;54092;53.088;8.850;2023-06-26T05:13:05;21.90;99.90
67163;DHT22;54092;53.088;8.850;2023-06-26T05:15:31;22.00;99.90
67163;DHT22;54092;53.088;8.850;2023-06-26T05:17:56;22.10;99.90
67163;DHT22;54092;53.088;8.850;2023-06-26T05:20:22;22.20;99.90
67163;DHT22;54092;53.088;8.850;2023-06-26T05:22:47;22.20;99.90
67163;DHT22;54092;53.088;8.850;2023-06-26T05:25:13;22.30;99.90
67163;DHT22;54092;53.088;8.850;2023-06-26T05:27:39;22.50;99.90
67163;DHT22;54092;53.088;8.850;2023-06-26T05:30:05;22.40;99.90
67163;DHT22;54092;53.088;8.850;2023-06-26T05:32:34;22.50;99.90
67163;DHT22;54092;53.088;8.850;2023-06-26T05:35:02;22.50;99.90
67163;DHT22;54092;53.088;8.850;2023-06-26T05:37:29;22.60;99.90
67163;DHT22;54092;53.088;8.850;2023-06-26T05:39:56;22.70;99.90
67163;DHT22;54092;53.088;8.850;2023-06-26T05:42:22;22.80;99.90
67163;DHT22;54092;53.088;8.850;2023-06-26T05:44:47;22.80;99.90
67163;DHT22;54092;53.088;8.850;2023-06-26T05:47:13;22.90;99.90
67163;DHT22;54092;53.088;8.850;2023-06-26T05:49:38;22.90;99.90
67163;DHT22;54092;53.088;8.850;2023-06-26T05:52:04;22.90;99.90
67163;DHT22;54092;53.088;8.850;2023-06-26T05:54:30;23.00;99.90
67163;DHT22;54092;53.088;8.850;2023-06-26T05:56:58;23.00;99.90
67163;DHT22;54092;53.088;8.850;2023-06-26T05:59:25;23.10;99.90
67163;DHT22;54092;53.088;8.850;2023-06-26T06:01:52;23.20;99.90
67163;DHT22;54092;53.088;8.850;2023-06-26T06:04:18;23.20;99.90
67163;DHT22;54092;53.088;8.850;2023-06-26T06:06:43;23.30;99.90
67163;DHT22;54092;53.088;8.850;2023-06-26T06:09:09;23.50;99.90
67163;DHT22;54092;53.088;8.850;2023-06-26T06:11:34;23.60;99.90
67163;DHT22;54092;53.088;8.850;2023-06-26T06:14:00;23.70;99.90
67163;DHT22;54092;53.088;8.850;2023-06-26T06:16:26;23.80;99.90
67163;DHT22;54092;53.088;8.850;2023-06-26T06:18:54;23.90;99.90
67163;DHT22;54092;53.088;8.850;2023-06-26T06:21:19;24.00;99.90
67163;DHT22;54092;53.088;8.850;2023-06-26T06:23:45;24.10;99.90
67163;DHT22;54092;53.088;8.850;2023-06-26T06:26:11;24.20;99.90
67163;DHT22;54092;53.088;8.850;2023-06-26T06:28:36;24.10;99.90
67163;DHT22;54092;53.088;8.850;2023-06-26T06:31:02;24.10;99.90
67163;DHT22;54092;53.088;8.850;2023-06-26T06:33:28;24.30;99.90
67163;DHT22;54092;53.088;8.850;2023-06-26T06:35:53;24.30;99.90
67163;DHT22;54092;53.088;8.850;2023-06-26T06:38:19;24.40;99.90
67163;DHT22;54092;53.088;8.850;2023-06-26T06:40:44;24.60;99.90
67163;DHT22;54092;53.088;8.850;2023-06-26T06:43:09;24.60;99.90
67163;DHT22;54092;53.088;8.850;2023-06-26T06:45:35;24.60;99.90
67163;DHT22;54092;53.088;8.850;2023-06-26T06:48:03;24.70;99.90
67163;DHT22;54092;53.088;8.850;2023-06-26T06:50:28;24.60;99.90
67163;DHT22;54092;53.088;8.850;2023-06-26T06:52:54;24.60;99.90
67163;DHT22;54092;53.088;8.850;2023-06-26T06:55:20;24.50;99.90
67163;DHT22;54092;53.088;8.850;2023-06-26T06:57:45;24.60;99.90
67163;DHT22;54092;53.088;8.850;2023-06-26T07:00:12;24.60;99.90
67163;DHT22;54092;53.088;8.850;2023-06-26T07:02:41;24.80;99.90
67163;DHT22;54092;53.088;8.850;2023-06-26T07:05:07;25.00;99.90
67163;DHT22;54092;53.088;8.850;2023-06-26T07:07:34;25.00;99.90
67163;DHT22;54092;53.088;8.850;2023-06-26T07:12:29;25.00;99.90
67163;DHT22;54092;53.088;8.850;2023-06-26T07:14:55;25.10;99.90
67163;DHT22;54092;53.088;8.850;2023-06-26T07:17:21;25.00;99.90
67163;DHT22;54092;53.088;8.850;2023-06-26T07:19:47;25.00;99.90
67163;DHT22;54092;53.088;8.850;2023-06-26T07:22:13;25.00;99.90
67163;DHT22;54092;53.088;8.850;2023-06-26T07:24:39;25.00;99.90
67163;DHT22;54092;53.088;8.850;2023-06-26T07:27:04;25.00;99.90
67163;DHT22;54092;53.088;8.850;2023-06-26T07:29:30;25.00;99.90
67163;DHT22;54092;53.088;8.850;2023-06-26T07:31:55;25.10;99.90
67163;DHT22;54092;53.088;8.850;2023-06-26T07:34:21;25.10;99.90
67163;DHT22;54092;53.088;8.850;2023-06-26T07:36:46;25.20;99.90
67163;DHT22;54092;53.088;8.850;2023-06-26T07:39:12;25.20;99.90
67163;DHT22;54092;53.088;8.850;2023-06-26T07:41:38;25.10;99.90
67163;DHT22;54092;53.088;8.850;2023-06-26T07:44:03;25.00;99.90
67163;DHT22;54092;53.088;8.850;2023-06-26T07:46:29;25.10;99.90
67163;DHT22;54092;53.088;8.850;2023-06-26T07:48:55;25.20;99.90
67163;DHT22;54092;53.088;8.850;2023-06-26T07:51:20;25.30;99.90
67163;DHT22;54092;53.088;8.850;2023-06-26T07:53:46;25.50;99.90
67163;DHT22;54092;53.088;8.850;2023-06-26T07:56:12;25.60;99.90
67163;DHT22;54092;53.088;8.850;2023-06-26T07:58:37;25.60;99.90
67163;DHT22;54092;53.088;8.850;2023-06-26T08:01:03;25.60;99.90
67163;DHT22;54092;53.088;8.850;2023-06-26T08:03:28;25.80;99.90
67163;DHT22;54092;53.088;8.850;2023-06-26T08:05:54;25.70;99.90
67163;DHT22;54092;53.088;8.850;2023-06-26T08:08:19;25.80;99.90
67163;DHT22;54092;53.088;8.850;2023-06-26T08:10:45;25.80;99.90
67163;DHT22;54092;53.088;8.850;2023-06-26T08:13:10;25.70;99.90
67163;DHT22;54092;53.088;8.850;2023-06-26T08:15:36;25.50;99.90
67163;DHT22;54092;53.088;8.850;2023-06-26T08:18:01;25.30;99.90
67163;DHT22;54092;53.088;8.850;2023-06-26T08:20:27;25.50;99.90
67163;DHT22;54092;53.088;8.850;2023-06-26T08:22:53;25.70;99.90
67163;DHT22;54092;53.088;8.850;2023-06-26T08:25:20;25.90;99.90
67163;DHT22;54092;53.088;8.850;2023-06-26T08:27:45;25.70;99.90
67163;DHT22;54092;53.088;8.850;2023-06-26T08:30:11;25.70;99.90
67163;DHT22;54092;53.088;8.850;2023-06-26T08:32:37;25.30;99.90
67163;DHT22;54092;53.088;8.850;2023-06-26T08:35:03;25.00;99.90
67163;DHT22;54092;53.088;8.850;2023-06-26T08:37:28;24.70;99.90
67163;DHT22;54092;53.088;8.850;2023-06-26T08:39:54;24.20;99.90
67163;DHT22;54092;53.088;8.850;2023-06-26T08:42:19;23.70;99.90
67163;DHT22;54092;53.088;8.850;2023-06-26T08:44:45;23.30;99.90
67163;DHT22;54092;53.088;8.850;2023-06-26T08:47:11;23.00;99.90
67163;DHT22;54092;53.088;8.850;2023-06-26T08:49:53;22.60;99.90
67163;DHT22;54092;53.088;8.850;2023-06-26T08:52:27;22.10;99.90
67163;DHT22;54092;53.088;8.850;2023-06-26T08:54:58;21.30;99.90
67163;DHT22;54092;53.088;8.850;2023-06-26T08:57:25;20.80;99.90
67163;DHT22;54092;53.088;8.850;2023-06-26T08:59:52;20.50;99.90
67163;DHT22;54092;53.088;8.850;2023-06-26T09:02:18;20.40;99.90
67163;DHT22;54092;53.088;8.850;2023-06-26T09:04:44;20.30;99.90
67163;DHT22;54092;53.088;8.850;2023-06-26T09:07:09;20.30;99.90
67163;DHT22;54092;53.088;8.850;2023-06-26T09:09:35;20.30;99.90
67163;DHT22;54092;53.088;8.850;2023-06-26T09:12:02;20.40;99.90
67163;DHT22;54092;53.088;8.850;2023-06-26T09:14:29;20.50;99.90
67163;DHT22;54092;53.088;8.850;2023-06-26T09:16:54;20.70;99.90
67163;DHT22;54092;53.088;8.850;2023-06-26T09:19:20;20.70;99.90
67163;DHT22;54092;53.088;8.850;2023-06-26T09:21:49;20.80;99.90
67163;DHT22;54092;53.088;8.850;2023-06-26T09:24:15;21.10;99.90
67163;DHT22;54092;53.088;8.850;2023-06-26T09:26:41;21.30;99.90
67163;DHT22;54092;53.088;8.850;2023-06-26T09:29:07;21.80;99.90
67163;DHT22;54092;53.088;8.850;2023-06-26T09:31:33;22.20;99.90
67163;DHT22;54092;53.088;8.850;2023-06-26T09:34:01;22.80;99.90
67163;DHT22;54092;53.088;8.850;2023-06-26T09:36:29;23.20;99.90
67163;DHT22;54092;53.088;8.850;2023-06-26T09:39:02;23.80;99.90
67163;DHT22;54092;53.088;8.850;2023-06-26T09:41:29;23.80;99.90
67163;DHT22;54092;53.088;8.850;2023-06-26T09:44:00;24.00;99.90
67163;DHT22;54092;53.088;8.850;2023-06-26T09:46:27;23.90;99.90
67163;DHT22;54092;53.088;8.850;2023-06-26T09:49:02;23.90;99.90
67163;DHT22;54092;53.088;8.850;2023-06-26T09:51:30;24.10;99.90
67163;DHT22;54092;53.088;8.850;2023-06-26T09:53:56;24.20;99.90
67163;DHT22;54092;53.088;8.850;2023-06-26T09:56:22;24.50;99.90
67163;DHT22;54092;53.088;8.850;2023-06-26T09:58:47;24.30;99.90
67163;DHT22;54092;53.088;8.850;2023-06-26T10:01:14;23.90;99.90
67163;DHT22;54092;53.088;8.850;2023-06-26T10:03:39;23.50;99.90
67163;DHT22;54092;53.088;8.850;2023-06-26T10:06:08;23.50;99.90
67163;DHT22;54092;53.088;8.850;2023-06-26T10:08:34;23.90;99.90
67163;DHT22;54092;53.088;8.850;2023-06-26T10:11:00;24.60;99.90
67163;DHT22;54092;53.088;8.850;2023-06-26T10:13:34;25.90;99.90
67163;DHT22;54092;53.088;8.850;2023-06-26T10:16:00;26.30;99.90
67163;DHT22;54092;53.088;8.850;2023-06-26T10:18:27;25.60;99.90
67163;DHT22;54092;53.088;8.850;2023-06-26T10:20:55;24.90;99.90
67163;DHT22;54092;53.088;8.850;2023-06-26T10:23:23;24.40;99.90
67163;DHT22;54092;53.088;8.850;2023-06-26T10:25:51;24.10;99.90
67163;DHT22;54092;53.088;8.850;2023-06-26T10:28:17;24.70;99.90
67163;DHT22;54092;53.088;8.850;2023-06-26T10:30:44;25.50;99.90
67163;DHT22;54092;53.088;8.850;2023-06-26T10:33:12;26.20;99.90
67163;DHT22;54092;53.088;8.850;2023-06-26T10:35:44;26.30;99.90
67163;DHT22;54092;53.088;8.850;2023-06-26T10:38:10;25.70;99.90
67163;DHT22;54092;53.088;8.850;2023-06-26T10:40:46;25.10;99.90
67163;DHT22;54092;53.088;8.850;2023-06-26T10:43:14;25.00;99.90
67163;DHT22;54092;53.088;8.850;2023-06-26T10:45:47;25.20;99.90
67163;DHT22;54092;53.088;8.850;2023-06-26T10:48:17;24.60;99.90
67163;DHT22;54092;53.088;8.850;2023-06-26T10:50:43;24.50;99.90
67163;DHT22;54092;53.088;8.850;2023-06-26T10:56:01;25.30;99.90
67163;DHT22;54092;53.088;8.850;2023-06-26T10:58:41;25.80;99.90
67163;DHT22;54092;53.088;8.850;2023-06-26T11:01:42;26.10;99.90
67163;DHT22;54092;53.088;8.850;2023-06-26T11:04:08;27.70;99.90
67163;DHT22;54092;53.088;8.850;2023-06-26T11:06:36;28.60;99.90
67163;DHT22;54092;53.088;8.850;2023-06-26T11:14:17;29.50;99.90
67163;DHT22;54092;53.088;8.850;2023-06-26T11:16:43;30.00;99.90
67163;DHT22;54092;53.088;8.850;2023-06-26T11:19:13;28.90;99.90
67163;DHT22;54092;53.088;8.850;2023-06-26T11:21:39;28.10;99.90
67163;DHT22;54092;53.088;8.850;2023-06-26T11:24:09;27.50;99.90
67163;DHT22;54092;53.088;8.850;2023-06-26T11:26:39;27.90;99.90
67163;DHT22;54092;53.088;8.850;2023-06-26T11:29:04;28.50;99.90
67163;DHT22;54092;53.088;8.850;2023-06-26T11:31:32;29.00;99.90
67163;DHT22;54092;53.088;8.850;2023-06-26T11:33:59;29.00;99.90
67163;DHT22;54092;53.088;8.850;2023-06-26T11:36:27;29.00;99.90
67163;DHT22;54092;53.088;8.850;2023-06-26T11:39:00;27.70;99.90
67163;DHT22;54092;53.088;8.850;2023-06-26T11:41:27;27.70;99.90
67163;DHT22;54092;53.088;8.850;2023-06-26T11:43:54;28.20;99.90
67163;DHT22;54092;53.088;8.850;2023-06-26T11:46:20;28.20;99.90
67163;DHT22;54092;53.088;8.850;2023-06-26T11:48:46;28.20;99.90
67163;DHT22;54092;53.088;8.850;2023-06-26T11:51:13;28.80;99.90
67163;DHT22;54092;53.088;8.850;2023-06-26T11:53:41;29.10;99.90
67163;DHT22;54092;53.088;8.850;2023-06-26T11:56:12;28.00;99.90
67163;DHT22;54092;53.088;8.850;2023-06-26T11:59:02;27.80;99.90
67163;DHT22;54092;53.088;8.850;2023-06-26T12:01:44;28.20;99.90
67163;DHT22;54092;53.088;8.850;2023-06-26T12:04:11;28.20;99.90
67163;DHT22;54092;53.088;8.850;2023-06-26T12:06:39;29.10;99.90
67163;DHT22;54092;53.088;8.850;2023-06-26T12:09:07;29.30;99.90
67163;DHT22;54092;53.088;8.850;2023-06-26T12:11:35;29.50;99.90
67163;DHT22;54092;53.088;8.850;2023-06-26T12:14:02;29.50;99.90
67163;DHT22;54092;53.088;8.850;2023-06-26T12:16:29;29.90;99.90
67163;DHT22;54092;53.088;8.850;2023-06-26T12:18:59;29.60;99.90
67163;DHT22;54092;53.088;8.850;2023-06-26T12:24:04;28.10;99.90
67163;DHT22;54092;53.088;8.850;2023-06-26T12:26:30;27.40;99.90
67163;DHT22;54092;53.088;8.850;2023-06-26T12:29:09;27.70;99.90
67163;DHT22;54092;53.088;8.850;2023-06-26T12:31:40;27.30;99.90
67163;DHT22;54092;53.088;8.850;2023-06-26T12:34:09;26.80;99.90
67163;DHT22;54092;53.088;8.850;2023-06-26T12:36:40;26.50;99.90
67163;DHT22;54092;53.088;8.850;2023-06-26T12:39:09;27.20;99.90
67163;DHT22;54092;53.088;8.850;2023-06-26T12:41:36;27.40;99.90
67163;DHT22;54092;53.088;8.850;2023-06-26T12:44:17;27.40;99.90
67163;DHT22;54092;53.088;8.850;2023-06-26T12:46:42;27.40;99.90
67163;DHT22;54092;53.088;8.850;2023-06-26T12:49:08;26.50;99.90
67163;DHT22;54092;53.088;8.850;2023-06-26T12:51:33;25.40;99.90
67163;DHT22;54092;53.088;8.850;2023-06-26T12:53:59;24.90;99.90
67163;DHT22;54092;53.088;8.850;2023-06-26T12:56:24;24.60;99.90
67163;DHT22;54092;53.088;8.850;2023-06-26T12:58:50;24.30;99.90
67163;DHT22;54092;53.088;8.850;2023-06-26T13:01:15;24.20;99.90
67163;DHT22;54092;53.088;8.850;2023-06-26T13:03:42;24.30;99.90
67163;DHT22;54092;53.088;8.850;2023-06-26T13:06:07;24.50;99.90
67163;DHT22;54092;53.088;8.850;2023-06-26T13:08:33;24.60;99.90
67163;DHT22;54092;53.088;8.850;2023-06-26T13:10:59;24.60;99.90
67163;DHT22;54092;53.088;8.850;2023-06-26T13:13:24;24.70;99.90
67163;DHT22;54092;53.088;8.850;2023-06-26T13:15:50;24.70;99.90
67163;DHT22;54092;53.088;8.850;2023-06-26T13:18:15;25.00;99.90
67163;DHT22;54092;53.088;8.850;2023-06-26T13:20:41;25.10;99.90
67163;DHT22;54092;53.088;8.850;2023-06-26T13:23:06;25.10;99.90
67163;DHT22;54092;53.088;8.850;2023-06-26T13:25:33;24.90;99.90
67163;DHT22;54092;53.088;8.850;2023-06-26T13:27:58;24.90;99.90
67163;DHT22;54092;53.088;8.850;2023-06-26T13:30:24;25.00;99.90
67163;DHT22;54092;53.088;8.850;2023-06-26T13:32:49;25.00;99.90
67163;DHT22;54092;53.088;8.850;2023-06-26T13:35:15;24.80;99.90
67163;DHT22;54092;53.088;8.850;2023-06-26T13:37:41;24.60;99.90
67163;DHT22;54092;53.088;8.850;2023-06-26T13:40:08;24.70;99.90
67163;DHT22;54092;53.088;8.850;2023-06-26T13:42:34;24.70;99.90
67163;DHT22;54092;53.088;8.850;2023-06-26T13:45:00;24.70;99.90
67163;DHT22;54092;53.088;8.850;2023-06-26T13:47:25;24.80;99.90
67163;DHT22;54092;53.088;8.850;2023-06-26T13:49:51;24.70;99.90
67163;DHT22;54092;53.088;8.850;2023-06-26T13:52:16;24.50;99.90
67163;DHT22;54092;53.088;8.850;2023-06-26T13:54:42;24.50;99.90
67163;DHT22;54092;53.088;8.850;2023-06-26T13:57:08;24.60;99.90
67163;DHT22;54092;53.088;8.850;2023-06-26T13:59:36;24.60;99.90
67163;DHT22;54092;53.088;8.850;2023-06-26T14:02:02;24.50;99.90
67163;DHT22;54092;53.088;8.850;2023-06-26T14:04:28;24.40;99.90
67163;DHT22;54092;53.088;8.850;2023-06-26T14:06:53;24.20;99.90
67163;DHT22;54092;53.088;8.850;2023-06-26T14:09:19;24.10;99.90
67163;DHT22;54092;53.088;8.850;2023-06-26T14:11:44;23.70;99.90
67163;DHT22;54092;53.088;8.850;2023-06-26T14:14:10;23.60;99.90
67163;DHT22;54092;53.088;8.850;2023-06-26T14:16:35;23.70;99.90
67163;DHT22;54092;53.088;8.850;2023-06-26T14:19:01;24.00;99.90
67163;DHT22;54092;53.088;8.850;2023-06-26T14:21:27;24.10;99.90
67163;DHT22;54092;53.088;8.850;2023-06-26T14:23:54;24.10;99.90
67163;DHT22;54092;53.088;8.850;2023-06-26T14:26:20;24.00;99.90
67163;DHT22;54092;53.088;8.850;2023-06-26T14:28:45;23.90;99.90
67163;DHT22;54092;53.088;8.850;2023-06-26T14:31:11;23.80;99.90
67163;DHT22;54092;53.088;8.850;2023-06-26T14:33:36;23.70;99.90
67163;DHT22;54092;53.088;8.850;2023-06-26T14:36:02;23.70;99.90
67163;DHT22;54092;53.088;8.850;2023-06-26T14:38:28;23.70;99.90
67163;DHT22;54092;53.088;8.850;2023-06-26T14:40:53;23.50;99.90
67163;DHT22;54092;53.088;8.850;2023-06-26T14:43:19;23.30;99.90
67163;DHT22;54092;53.088;8.850;2023-06-26T14:45:44;23.10;99.90
67163;DHT22;54092;53.088;8.850;2023-06-26T14:48:10;23.00;99.90
67163;DHT22;54092;53.088;8.850;2023-06-26T14:50:35;23.00;99.90
67163;DHT22;54092;53.088;8.850;2023-06-26T14:53:00;22.90;99.90
67163;DHT22;54092;53.088;8.850;2023-06-26T14:55:26;23.00;99.90
67163;DHT22;54092;53.088;8.850;2023-06-26T14:57:51;22.90;99.90
67163;DHT22;54092;53.088;8.850;2023-06-26T15:00:18;22.90;99.90
67163;DHT22;54092;53.088;8.850;2023-06-26T15:02:43;23.10;99.90
67163;DHT22;54092;53.088;8.850;2023-06-26T15:05:09;23.30;99.90
67163;DHT22;54092;53.088;8.850;2023-06-26T15:07:34;23.50;99.90
67163;DHT22;54092;53.088;8.850;2023-06-26T15:10:00;23.70;99.90
67163;DHT22;54092;53.088;8.850;2023-06-26T15:12:25;23.70;99.90
67163;DHT22;54092;53.088;8.850;2023-06-26T15:14:52;23.60;99.90
67163;DHT22;54092;53.088;8.850;2023-06-26T15:17:18;23.30;99.90
67163;DHT22;54092;53.088;8.850;2023-06-26T15:19:43;23.10;99.90
67163;DHT22;54092;53.088;8.850;2023-06-26T15:22:09;22.90;99.90
67163;DHT22;54092;53.088;8.850;2023-06-26T15:24:34;22.80;99.90
67163;DHT22;54092;53.088;8.850;2023-06-26T15:27:00;22.70;99.90
67163;DHT22;54092;53.088;8.850;2023-06-26T15:29:26;22.70;99.90
67163;DHT22;54092;53.088;8.850;2023-06-26T15:31:52;22.80;99.90
67163;DHT22;54092;53.088;8.850;2023-06-26T15:34:19;22.80;99.90
67163;DHT22;54092;53.088;8.850;2023-06-26T15:36:44;22.80;99.90
67163;DHT22;54092;53.088;8.850;2023-06-26T15:39:10;22.70;99.90
67163;DHT22;54092;53.088;8.850;2023-06-26T15:41:36;22.80;99.90
67163;DHT22;54092;53.088;8.850;2023-06-26T15:44:03;22.90;99.90
67163;DHT22;54092;53.088;8.850;2023-06-26T15:46:29;23.10;99.90